Webcam Richtung Westen

Webcam27

Webcam Richtung Norden

Webcam36

Webcam Richtung Osten

Webcam09

Wetter(Würzburg):
111500Z AUTO 10010G17KT 65KM BKN370 OVC390 30/05 Q1020
		
Thu 11.08.2022, 15:00 UTC

Sichtweite bis zu 65 km
Wind aus 100° mit 10kt, in Böen bis zu 17kt
unterbrochene Wolkendecke (5-7 Achtel) bei 37000 Fuß
bedeckter Himmel (8 Achtel) bei 39000 Fuß
Temperatur: 30 °C
Taupunkt: 5 °C
QNH: 1020 hPa
                         Heute        Morgen
                         11.08        12.08
--------------------------------------------
Beginn der Dämmerung     03:27        03:29
Sonnenaufgang            04:04        04:06
Sonnenuntergang          18:47        18:45
Ende der Dämmerung       19:23        19:21

Alle Zeiten in UTC